Belize - Landivar, Belize

6:36 AM CST on March 05, 2015 (GMT -0600)
Astrum Helicopters - Cisco Base | Change Station
CLOSE
Current Station
Personal Weather Station
Location: Belize City, BZ
Elevation: 3 ft
Nearby Weather Stations

Elev 3 ft 17.50 °N, 88.23 °W | Updated 1 second ago

Scattered Clouds
Scattered Clouds
79.2 °F
Feels Like 83 °F
N
8.1
Wind Variable Wind from ESE
Gusts 13.0 mph

Today
High -- | Low -- °F
--% Chance of Precip.
Yesterday
High -- | Low -- °F
Precip. -- in
6:08 AM 6:00 PM
Full, 100% visible
Pressure 29.92 in
Visibility 6.2 miles
Clouds Scattered Clouds 1700 ft
Heat Index 83 °F
Dew Point 74 °F
Humidity 83%
Rainfall in
Snow Depth Not available.
UV 0 out of 12
Pollen Not available.
Air Quality Not available.
Flu Activity Not available.
METAR MZBZ 051200Z 12004KT 9999 SCT017 26/23 A2992 Q1013 NOSIG

More Conditions Fewer Conditions

Pressure 29.92 in
Visibility 6.2 miles
Clouds Scattered Clouds 1700 ft
Heat Index 83 °F
Dew Point 74 °F
Humidity 83%
Rainfall in
Snow Depth Not available.
UV 0 out of 12
Pollen Not available.
Air Quality Not available.
Flu Activity Not available.
METAR MZBZ 051200Z 12004KT 9999 SCT017 26/23 A2992 Q1013 NOSIG

More Conditions Fewer Conditions

10-Day Weather Forecast

Almanac

Astronomy

Mar. 05, 2015 Rise Set
Actual Time
Civil Twilight
Nautical Twilight
Astronomical Twilight
Moon
Length of Visible Light
Length of Day
Tomorrow will be .
, % of the Moon is Illuminated

Today's Extremes

Country Highs Country Lows

Community

WunderPhotos

Upload Photos

1,802,736 photos uploaded!

WunderBlogs® & News

Nearby

Air Quality

  Air Quality AQ Index Pollutant
Not available.

Snow Depth

Station Depth Elevation

Earthquake Activity

City Distance Mag. Time & Date
Minimum magnitude displayed is 2.5.

Coastal Water Temperatures

Place Temperature

Nearby Weather Stations